sensor_id;sensor_type;location;lat;lon;timestamp;temperature;humidity
12926;DHT22;6529;50.566;9.774;2022-08-19T00:00:07;19.10;99.90
12926;DHT22;6529;50.566;9.774;2022-08-19T00:02:34;19.10;99.90
12926;DHT22;6529;50.566;9.774;2022-08-19T00:05:00;19.00;99.90
12926;DHT22;6529;50.566;9.774;2022-08-19T00:07:26;19.00;99.90
12926;DHT22;6529;50.566;9.774;2022-08-19T00:09:52;19.00;99.90
12926;DHT22;6529;50.566;9.774;2022-08-19T00:12:17;18.90;99.90
12926;DHT22;6529;50.566;9.774;2022-08-19T00:14:43;19.00;99.90
12926;DHT22;6529;50.566;9.774;2022-08-19T00:17:09;19.00;99.90
12926;DHT22;6529;50.566;9.774;2022-08-19T00:19:36;18.90;99.90
12926;DHT22;6529;50.566;9.774;2022-08-19T00:22:02;18.90;99.90
12926;DHT22;6529;50.566;9.774;2022-08-19T00:24:28;18.80;99.90
12926;DHT22;6529;50.566;9.774;2022-08-19T00:26:55;18.70;99.90
12926;DHT22;6529;50.566;9.774;2022-08-19T00:29:23;18.70;99.90
12926;DHT22;6529;50.566;9.774;2022-08-19T00:31:50;18.80;99.90
12926;DHT22;6529;50.566;9.774;2022-08-19T00:34:18;18.70;99.90
12926;DHT22;6529;50.566;9.774;2022-08-19T00:36:44;18.70;99.90
12926;DHT22;6529;50.566;9.774;2022-08-19T00:39:10;18.60;99.90
12926;DHT22;6529;50.566;9.774;2022-08-19T00:41:36;18.60;99.90
12926;DHT22;6529;50.566;9.774;2022-08-19T00:44:06;18.70;99.90
12926;DHT22;6529;50.566;9.774;2022-08-19T00:46:33;18.70;99.90
12926;DHT22;6529;50.566;9.774;2022-08-19T00:49:08;18.80;99.90
12926;DHT22;6529;50.566;9.774;2022-08-19T00:51:35;18.70;99.90
12926;DHT22;6529;50.566;9.774;2022-08-19T00:54:02;18.70;99.90
12926;DHT22;6529;50.566;9.774;2022-08-19T00:56:28;18.60;99.90
12926;DHT22;6529;50.566;9.774;2022-08-19T00:58:58;18.60;99.90
12926;DHT22;6529;50.566;9.774;2022-08-19T01:01:24;18.60;99.90
12926;DHT22;6529;50.566;9.774;2022-08-19T01:03:50;18.60;99.90
12926;DHT22;6529;50.566;9.774;2022-08-19T01:06:15;18.60;99.90
12926;DHT22;6529;50.566;9.774;2022-08-19T01:08:41;18.60;99.90
12926;DHT22;6529;50.566;9.774;2022-08-19T01:11:07;18.60;99.90
12926;DHT22;6529;50.566;9.774;2022-08-19T01:13:34;18.50;99.90
12926;DHT22;6529;50.566;9.774;2022-08-19T01:16:04;18.40;99.90
12926;DHT22;6529;50.566;9.774;2022-08-19T01:18:30;18.50;99.90
12926;DHT22;6529;50.566;9.774;2022-08-19T01:21:02;18.50;99.90
12926;DHT22;6529;50.566;9.774;2022-08-19T01:23:30;18.50;99.90
12926;DHT22;6529;50.566;9.774;2022-08-19T01:26:11;18.50;99.90
12926;DHT22;6529;50.566;9.774;2022-08-19T01:28:40;18.60;99.90
12926;DHT22;6529;50.566;9.774;2022-08-19T01:31:12;18.60;99.90
12926;DHT22;6529;50.566;9.774;2022-08-19T01:33:38;18.50;99.90
12926;DHT22;6529;50.566;9.774;2022-08-19T01:38:50;18.50;99.90
12926;DHT22;6529;50.566;9.774;2022-08-19T01:41:17;18.60;99.90
12926;DHT22;6529;50.566;9.774;2022-08-19T01:43:44;18.60;99.90
12926;DHT22;6529;50.566;9.774;2022-08-19T01:46:10;18.60;99.90
12926;DHT22;6529;50.566;9.774;2022-08-19T01:48:39;18.50;99.90
12926;DHT22;6529;50.566;9.774;2022-08-19T01:51:06;18.60;99.90
12926;DHT22;6529;50.566;9.774;2022-08-19T01:53:32;18.60;99.90
12926;DHT22;6529;50.566;9.774;2022-08-19T01:55:58;18.60;99.90
12926;DHT22;6529;50.566;9.774;2022-08-19T01:58:29;18.60;99.90
12926;DHT22;6529;50.566;9.774;2022-08-19T02:00:57;18.70;99.90
12926;DHT22;6529;50.566;9.774;2022-08-19T02:03:23;18.70;99.90
12926;DHT22;6529;50.566;9.774;2022-08-19T02:05:57;18.70;99.90
12926;DHT22;6529;50.566;9.774;2022-08-19T02:08:24;18.60;99.90
12926;DHT22;6529;50.566;9.774;2022-08-19T02:10:49;18.60;99.90
12926;DHT22;6529;50.566;9.774;2022-08-19T02:13:16;18.50;99.90
12926;DHT22;6529;50.566;9.774;2022-08-19T02:15:41;18.60;99.90
12926;DHT22;6529;50.566;9.774;2022-08-19T02:18:07;18.60;99.90
12926;DHT22;6529;50.566;9.774;2022-08-19T02:20:33;18.60;99.90
12926;DHT22;6529;50.566;9.774;2022-08-19T02:22:59;18.70;99.90
12926;DHT22;6529;50.566;9.774;2022-08-19T02:25:26;18.70;99.90
12926;DHT22;6529;50.566;9.774;2022-08-19T02:27:52;18.60;99.90
12926;DHT22;6529;50.566;9.774;2022-08-19T02:30:20;18.60;99.90
12926;DHT22;6529;50.566;9.774;2022-08-19T02:32:46;18.60;99.90
12926;DHT22;6529;50.566;9.774;2022-08-19T02:35:13;18.60;99.90
12926;DHT22;6529;50.566;9.774;2022-08-19T02:37:39;18.60;99.90
12926;DHT22;6529;50.566;9.774;2022-08-19T02:40:23;18.50;99.90
12926;DHT22;6529;50.566;9.774;2022-08-19T02:42:49;18.50;99.90
12926;DHT22;6529;50.566;9.774;2022-08-19T02:45:14;18.60;99.90
12926;DHT22;6529;50.566;9.774;2022-08-19T02:47:40;18.60;99.90
12926;DHT22;6529;50.566;9.774;2022-08-19T02:50:06;18.60;99.90
12926;DHT22;6529;50.566;9.774;2022-08-19T02:52:32;18.60;99.90
12926;DHT22;6529;50.566;9.774;2022-08-19T02:54:58;18.60;99.90
12926;DHT22;6529;50.566;9.774;2022-08-19T02:57:25;18.60;99.90
12926;DHT22;6529;50.566;9.774;2022-08-19T02:59:51;18.70;99.90
12926;DHT22;6529;50.566;9.774;2022-08-19T03:02:18;18.70;99.90
12926;DHT22;6529;50.566;9.774;2022-08-19T03:04:43;18.80;99.90
12926;DHT22;6529;50.566;9.774;2022-08-19T03:07:09;18.70;99.90
12926;DHT22;6529;50.566;9.774;2022-08-19T03:09:38;18.70;99.90
12926;DHT22;6529;50.566;9.774;2022-08-19T03:12:05;18.70;99.90
12926;DHT22;6529;50.566;9.774;2022-08-19T03:14:32;18.70;99.90
12926;DHT22;6529;50.566;9.774;2022-08-19T03:16:58;18.60;99.90
12926;DHT22;6529;50.566;9.774;2022-08-19T03:19:24;18.60;99.90
12926;DHT22;6529;50.566;9.774;2022-08-19T03:21:51;18.70;99.90
12926;DHT22;6529;50.566;9.774;2022-08-19T03:24:17;18.70;99.90
12926;DHT22;6529;50.566;9.774;2022-08-19T03:26:46;18.70;99.90
12926;DHT22;6529;50.566;9.774;2022-08-19T03:29:13;18.60;99.90
12926;DHT22;6529;50.566;9.774;2022-08-19T03:31:40;18.60;99.90
12926;DHT22;6529;50.566;9.774;2022-08-19T03:34:06;18.60;99.90
12926;DHT22;6529;50.566;9.774;2022-08-19T03:36:32;18.60;99.90
12926;DHT22;6529;50.566;9.774;2022-08-19T03:39:00;18.60;99.90
12926;DHT22;6529;50.566;9.774;2022-08-19T03:41:31;18.60;99.90
12926;DHT22;6529;50.566;9.774;2022-08-19T03:43:57;18.60;99.90
12926;DHT22;6529;50.566;9.774;2022-08-19T03:46:27;18.50;99.90
12926;DHT22;6529;50.566;9.774;2022-08-19T03:48:55;18.50;99.90
12926;DHT22;6529;50.566;9.774;2022-08-19T03:51:28;18.50;99.90
12926;DHT22;6529;50.566;9.774;2022-08-19T03:53:56;18.40;99.90
12926;DHT22;6529;50.566;9.774;2022-08-19T03:56:22;18.50;99.90
12926;DHT22;6529;50.566;9.774;2022-08-19T03:58:48;18.40;99.90
12926;DHT22;6529;50.566;9.774;2022-08-19T04:01:17;18.40;99.90
12926;DHT22;6529;50.566;9.774;2022-08-19T04:03:44;18.40;99.90
12926;DHT22;6529;50.566;9.774;2022-08-19T04:08:44;18.50;99.90
12926;DHT22;6529;50.566;9.774;2022-08-19T04:11:13;18.60;99.90
12926;DHT22;6529;50.566;9.774;2022-08-19T04:13:40;18.90;99.90
12926;DHT22;6529;50.566;9.774;2022-08-19T04:16:08;19.20;99.90
12926;DHT22;6529;50.566;9.774;2022-08-19T04:18:35;19.20;99.90
12926;DHT22;6529;50.566;9.774;2022-08-19T04:21:01;19.00;99.90
12926;DHT22;6529;50.566;9.774;2022-08-19T04:23:28;18.90;99.90
12926;DHT22;6529;50.566;9.774;2022-08-19T04:25:54;18.70;99.90
12926;DHT22;6529;50.566;9.774;2022-08-19T04:28:20;18.50;99.90
12926;DHT22;6529;50.566;9.774;2022-08-19T04:30:49;18.50;99.90
12926;DHT22;6529;50.566;9.774;2022-08-19T04:33:18;18.40;99.90
12926;DHT22;6529;50.566;9.774;2022-08-19T04:35:47;18.50;99.90
12926;DHT22;6529;50.566;9.774;2022-08-19T04:38:14;18.60;99.90
12926;DHT22;6529;50.566;9.774;2022-08-19T04:40:45;18.60;99.90
12926;DHT22;6529;50.566;9.774;2022-08-19T04:43:31;18.70;99.90
12926;DHT22;6529;50.566;9.774;2022-08-19T04:45:57;18.70;99.90
12926;DHT22;6529;50.566;9.774;2022-08-19T04:48:24;18.70;99.90
12926;DHT22;6529;50.566;9.774;2022-08-19T04:50:54;18.70;99.90
12926;DHT22;6529;50.566;9.774;2022-08-19T04:53:27;18.70;99.90
12926;DHT22;6529;50.566;9.774;2022-08-19T04:55:55;18.70;99.90
12926;DHT22;6529;50.566;9.774;2022-08-19T04:58:22;18.70;99.90
12926;DHT22;6529;50.566;9.774;2022-08-19T05:00:48;18.70;99.90
12926;DHT22;6529;50.566;9.774;2022-08-19T05:03:14;18.80;99.90
12926;DHT22;6529;50.566;9.774;2022-08-19T05:05:46;18.80;99.90
12926;DHT22;6529;50.566;9.774;2022-08-19T05:08:15;18.90;99.90
12926;DHT22;6529;50.566;9.774;2022-08-19T05:10:45;18.90;99.90
12926;DHT22;6529;50.566;9.774;2022-08-19T05:13:12;18.90;99.90
12926;DHT22;6529;50.566;9.774;2022-08-19T05:15:37;19.00;99.90
12926;DHT22;6529;50.566;9.774;2022-08-19T05:18:03;19.30;99.90
12926;DHT22;6529;50.566;9.774;2022-08-19T05:20:47;19.30;99.90
12926;DHT22;6529;50.566;9.774;2022-08-19T05:23:31;19.50;99.90
12926;DHT22;6529;50.566;9.774;2022-08-19T05:25:56;19.50;99.90
12926;DHT22;6529;50.566;9.774;2022-08-19T05:28:22;19.50;99.90
12926;DHT22;6529;50.566;9.774;2022-08-19T05:30:48;19.30;99.90
12926;DHT22;6529;50.566;9.774;2022-08-19T05:33:16;19.30;99.90
12926;DHT22;6529;50.566;9.774;2022-08-19T05:35:41;19.20;99.90
12926;DHT22;6529;50.566;9.774;2022-08-19T05:38:07;19.30;99.90
12926;DHT22;6529;50.566;9.774;2022-08-19T05:40:38;19.30;99.90
12926;DHT22;6529;50.566;9.774;2022-08-19T05:43:05;19.20;99.90
12926;DHT22;6529;50.566;9.774;2022-08-19T05:45:32;19.10;99.90
12926;DHT22;6529;50.566;9.774;2022-08-19T05:47:58;19.00;99.90
12926;DHT22;6529;50.566;9.774;2022-08-19T05:50:24;19.00;99.90
12926;DHT22;6529;50.566;9.774;2022-08-19T05:52:52;19.10;99.90
12926;DHT22;6529;50.566;9.774;2022-08-19T05:55:17;19.30;99.90
12926;DHT22;6529;50.566;9.774;2022-08-19T05:57:45;19.50;99.90
12926;DHT22;6529;50.566;9.774;2022-08-19T06:00:12;19.50;99.90
12926;DHT22;6529;50.566;9.774;2022-08-19T06:02:38;19.40;99.90
12926;DHT22;6529;50.566;9.774;2022-08-19T06:05:05;19.40;99.90
12926;DHT22;6529;50.566;9.774;2022-08-19T06:07:35;19.40;99.90
12926;DHT22;6529;50.566;9.774;2022-08-19T06:10:01;19.50;99.90
12926;DHT22;6529;50.566;9.774;2022-08-19T06:12:31;19.60;99.90
12926;DHT22;6529;50.566;9.774;2022-08-19T06:15:04;19.50;99.90
12926;DHT22;6529;50.566;9.774;2022-08-19T06:17:30;19.60;99.90
12926;DHT22;6529;50.566;9.774;2022-08-19T06:19:56;19.50;99.90
12926;DHT22;6529;50.566;9.774;2022-08-19T06:22:22;19.50;99.90
12926;DHT22;6529;50.566;9.774;2022-08-19T06:24:48;19.50;99.90
12926;DHT22;6529;50.566;9.774;2022-08-19T06:27:18;19.50;99.90
12926;DHT22;6529;50.566;9.774;2022-08-19T06:29:44;19.60;99.90
12926;DHT22;6529;50.566;9.774;2022-08-19T06:32:10;19.70;99.90
12926;DHT22;6529;50.566;9.774;2022-08-19T06:34:36;20.20;99.90
12926;DHT22;6529;50.566;9.774;2022-08-19T06:37:02;20.00;99.90
12926;DHT22;6529;50.566;9.774;2022-08-19T06:39:34;20.20;99.90
12926;DHT22;6529;50.566;9.774;2022-08-19T06:42:02;20.20;99.90
12926;DHT22;6529;50.566;9.774;2022-08-19T06:44:30;20.20;99.90
12926;DHT22;6529;50.566;9.774;2022-08-19T06:47:02;20.30;99.90
12926;DHT22;6529;50.566;9.774;2022-08-19T06:49:28;20.70;99.90
12926;DHT22;6529;50.566;9.774;2022-08-19T06:51:57;20.80;99.90
12926;DHT22;6529;50.566;9.774;2022-08-19T06:54:23;20.80;99.90
12926;DHT22;6529;50.566;9.774;2022-08-19T06:56:48;20.90;99.90
12926;DHT22;6529;50.566;9.774;2022-08-19T06:59:19;20.80;99.90
12926;DHT22;6529;50.566;9.774;2022-08-19T07:01:50;20.60;99.90
12926;DHT22;6529;50.566;9.774;2022-08-19T07:04:26;20.40;99.90
12926;DHT22;6529;50.566;9.774;2022-08-19T07:06:58;20.40;99.90
12926;DHT22;6529;50.566;9.774;2022-08-19T07:09:24;20.30;99.90
12926;DHT22;6529;50.566;9.774;2022-08-19T07:11:51;20.30;99.90
12926;DHT22;6529;50.566;9.774;2022-08-19T07:14:21;20.40;99.90
12926;DHT22;6529;50.566;9.774;2022-08-19T07:16:48;20.40;99.90
12926;DHT22;6529;50.566;9.774;2022-08-19T07:19:15;20.40;99.90
12926;DHT22;6529;50.566;9.774;2022-08-19T07:21:42;20.60;99.90
12926;DHT22;6529;50.566;9.774;2022-08-19T07:24:08;20.60;99.90
12926;DHT22;6529;50.566;9.774;2022-08-19T07:26:38;20.60;99.90
12926;DHT22;6529;50.566;9.774;2022-08-19T07:29:05;20.70;99.90
12926;DHT22;6529;50.566;9.774;2022-08-19T07:31:31;20.80;99.90
12926;DHT22;6529;50.566;9.774;2022-08-19T07:34:03;20.80;99.90
12926;DHT22;6529;50.566;9.774;2022-08-19T07:36:33;20.90;99.90
12926;DHT22;6529;50.566;9.774;2022-08-19T07:39:01;21.00;99.90
12926;DHT22;6529;50.566;9.774;2022-08-19T07:41:29;20.90;99.90
12926;DHT22;6529;50.566;9.774;2022-08-19T07:43:56;20.90;99.90
12926;DHT22;6529;50.566;9.774;2022-08-19T07:46:21;20.90;99.90
12926;DHT22;6529;50.566;9.774;2022-08-19T07:48:48;20.90;99.90
12926;DHT22;6529;50.566;9.774;2022-08-19T07:51:18;21.00;99.90
12926;DHT22;6529;50.566;9.774;2022-08-19T07:53:44;21.00;99.90
12926;DHT22;6529;50.566;9.774;2022-08-19T07:56:12;21.00;99.90
12926;DHT22;6529;50.566;9.774;2022-08-19T07:58:40;21.00;99.90
12926;DHT22;6529;50.566;9.774;2022-08-19T08:01:09;21.00;99.90
12926;DHT22;6529;50.566;9.774;2022-08-19T08:03:36;20.90;99.90
12926;DHT22;6529;50.566;9.774;2022-08-19T08:06:22;21.00;99.90
12926;DHT22;6529;50.566;9.774;2022-08-19T08:09:07;21.00;99.90
12926;DHT22;6529;50.566;9.774;2022-08-19T08:11:37;21.00;99.90
12926;DHT22;6529;50.566;9.774;2022-08-19T08:14:03;21.00;99.90
12926;DHT22;6529;50.566;9.774;2022-08-19T08:16:33;21.10;99.90
12926;DHT22;6529;50.566;9.774;2022-08-19T08:18:59;21.10;99.90
12926;DHT22;6529;50.566;9.774;2022-08-19T08:21:25;21.20;99.90
12926;DHT22;6529;50.566;9.774;2022-08-19T08:23:50;21.10;99.90
12926;DHT22;6529;50.566;9.774;2022-08-19T08:26:17;21.10;99.90
12926;DHT22;6529;50.566;9.774;2022-08-19T08:28:43;21.30;99.90
12926;DHT22;6529;50.566;9.774;2022-08-19T08:31:08;21.30;99.90
12926;DHT22;6529;50.566;9.774;2022-08-19T08:33:34;21.30;99.90
12926;DHT22;6529;50.566;9.774;2022-08-19T08:36:06;21.40;99.90
12926;DHT22;6529;50.566;9.774;2022-08-19T08:38:33;21.50;99.90
12926;DHT22;6529;50.566;9.774;2022-08-19T08:41:23;21.60;99.90
12926;DHT22;6529;50.566;9.774;2022-08-19T08:43:54;21.60;99.90
12926;DHT22;6529;50.566;9.774;2022-08-19T08:46:47;21.50;99.90
12926;DHT22;6529;50.566;9.774;2022-08-19T08:52:06;21.40;99.90
12926;DHT22;6529;50.566;9.774;2022-08-19T08:54:46;21.40;99.90
12926;DHT22;6529;50.566;9.774;2022-08-19T08:57:32;21.50;99.90
12926;DHT22;6529;50.566;9.774;2022-08-19T09:00:03;21.50;99.90
12926;DHT22;6529;50.566;9.774;2022-08-19T09:02:31;21.50;99.90
12926;DHT22;6529;50.566;9.774;2022-08-19T09:04:56;21.70;99.90
12926;DHT22;6529;50.566;9.774;2022-08-19T09:07:25;21.80;99.90
12926;DHT22;6529;50.566;9.774;2022-08-19T09:10:16;21.90;99.90
12926;DHT22;6529;50.566;9.774;2022-08-19T09:13:10;21.90;99.90
12926;DHT22;6529;50.566;9.774;2022-08-19T09:15:48;22.10;99.90
12926;DHT22;6529;50.566;9.774;2022-08-19T09:18:16;22.10;99.90
12926;DHT22;6529;50.566;9.774;2022-08-19T09:20:42;22.10;99.90
12926;DHT22;6529;50.566;9.774;2022-08-19T09:23:08;22.20;99.90
12926;DHT22;6529;50.566;9.774;2022-08-19T09:25:36;22.10;99.90
12926;DHT22;6529;50.566;9.774;2022-08-19T09:28:02;22.00;99.90
12926;DHT22;6529;50.566;9.774;2022-08-19T09:30:34;21.90;99.90
12926;DHT22;6529;50.566;9.774;2022-08-19T09:33:02;21.90;99.90
12926;DHT22;6529;50.566;9.774;2022-08-19T09:35:29;21.80;99.90
12926;DHT22;6529;50.566;9.774;2022-08-19T09:37:56;21.90;99.90
12926;DHT22;6529;50.566;9.774;2022-08-19T09:40:23;22.00;99.90
12926;DHT22;6529;50.566;9.774;2022-08-19T09:42:49;22.10;99.90
12926;DHT22;6529;50.566;9.774;2022-08-19T09:45:16;22.20;99.90
12926;DHT22;6529;50.566;9.774;2022-08-19T09:47:43;22.30;99.90
12926;DHT22;6529;50.566;9.774;2022-08-19T09:50:11;22.10;99.90
12926;DHT22;6529;50.566;9.774;2022-08-19T09:52:38;22.10;99.90
12926;DHT22;6529;50.566;9.774;2022-08-19T09:55:08;22.10;99.90
12926;DHT22;6529;50.566;9.774;2022-08-19T09:57:34;21.90;99.90
12926;DHT22;6529;50.566;9.774;2022-08-19T10:00:00;21.90;99.90
12926;DHT22;6529;50.566;9.774;2022-08-19T10:02:26;22.00;99.90
12926;DHT22;6529;50.566;9.774;2022-08-19T10:04:51;22.00;99.90
12926;DHT22;6529;50.566;9.774;2022-08-19T10:07:36;22.10;99.90
12926;DHT22;6529;50.566;9.774;2022-08-19T10:10:06;22.30;99.90
12926;DHT22;6529;50.566;9.774;2022-08-19T10:12:33;22.20;99.90
12926;DHT22;6529;50.566;9.774;2022-08-19T10:14:59;22.30;99.90
12926;DHT22;6529;50.566;9.774;2022-08-19T10:17:25;22.50;99.90
12926;DHT22;6529;50.566;9.774;2022-08-19T10:19:51;22.90;99.90
12926;DHT22;6529;50.566;9.774;2022-08-19T10:22:18;23.20;99.90
12926;DHT22;6529;50.566;9.774;2022-08-19T10:24:45;23.70;99.90
12926;DHT22;6529;50.566;9.774;2022-08-19T10:27:11;24.30;99.90
12926;DHT22;6529;50.566;9.774;2022-08-19T10:29:38;24.90;99.90
12926;DHT22;6529;50.566;9.774;2022-08-19T10:32:07;25.20;99.90
12926;DHT22;6529;50.566;9.774;2022-08-19T10:34:35;25.60;99.90
12926;DHT22;6529;50.566;9.774;2022-08-19T10:37:03;25.60;99.90
12926;DHT22;6529;50.566;9.774;2022-08-19T10:39:32;25.80;99.90
12926;DHT22;6529;50.566;9.774;2022-08-19T10:41:59;25.80;99.90
12926;DHT22;6529;50.566;9.774;2022-08-19T10:44:25;25.70;99.90
12926;DHT22;6529;50.566;9.774;2022-08-19T10:46:50;25.80;99.90
12926;DHT22;6529;50.566;9.774;2022-08-19T10:49:17;25.90;99.90
12926;DHT22;6529;50.566;9.774;2022-08-19T10:51:50;26.10;99.90
12926;DHT22;6529;50.566;9.774;2022-08-19T10:54:34;26.20;99.90
12926;DHT22;6529;50.566;9.774;2022-08-19T10:57:19;26.30;99.90
12926;DHT22;6529;50.566;9.774;2022-08-19T10:59:44;26.50;99.90
12926;DHT22;6529;50.566;9.774;2022-08-19T11:02:11;26.60;99.90
12926;DHT22;6529;50.566;9.774;2022-08-19T11:04:38;26.70;99.90
12926;DHT22;6529;50.566;9.774;2022-08-19T11:07:05;26.90;99.90
12926;DHT22;6529;50.566;9.774;2022-08-19T11:09:31;27.20;99.90
12926;DHT22;6529;50.566;9.774;2022-08-19T11:12:01;27.30;99.90
12926;DHT22;6529;50.566;9.774;2022-08-19T11:14:27;27.30;99.90
12926;DHT22;6529;50.566;9.774;2022-08-19T11:16:56;27.40;99.90
12926;DHT22;6529;50.566;9.774;2022-08-19T11:19:22;27.30;99.90
12926;DHT22;6529;50.566;9.774;2022-08-19T11:21:49;27.20;99.90
12926;DHT22;6529;50.566;9.774;2022-08-19T11:24:20;26.90;99.90
12926;DHT22;6529;50.566;9.774;2022-08-19T11:26:48;27.00;99.90
12926;DHT22;6529;50.566;9.774;2022-08-19T11:29:15;26.80;99.90
12926;DHT22;6529;50.566;9.774;2022-08-19T11:31:43;26.70;99.90
12926;DHT22;6529;50.566;9.774;2022-08-19T11:34:12;26.70;99.90
12926;DHT22;6529;50.566;9.774;2022-08-19T11:36:41;26.80;99.90
12926;DHT22;6529;50.566;9.774;2022-08-19T11:39:08;26.90;99.90
12926;DHT22;6529;50.566;9.774;2022-08-19T11:41:34;26.80;99.90
12926;DHT22;6529;50.566;9.774;2022-08-19T11:44:00;26.90;99.90
12926;DHT22;6529;50.566;9.774;2022-08-19T11:46:28;26.60;99.90
12926;DHT22;6529;50.566;9.774;2022-08-19T11:48:56;26.80;99.90
12926;DHT22;6529;50.566;9.774;2022-08-19T11:51:23;26.70;99.90
12926;DHT22;6529;50.566;9.774;2022-08-19T11:53:54;26.40;99.90
12926;DHT22;6529;50.566;9.774;2022-08-19T11:56:20;26.40;99.90
12926;DHT22;6529;50.566;9.774;2022-08-19T11:58:47;26.20;99.90
12926;DHT22;6529;50.566;9.774;2022-08-19T12:01:15;26.20;99.90
12926;DHT22;6529;50.566;9.774;2022-08-19T12:03:41;26.10;99.90
12926;DHT22;6529;50.566;9.774;2022-08-19T12:06:11;26.20;99.90
12926;DHT22;6529;50.566;9.774;2022-08-19T12:08:44;26.40;99.90
12926;DHT22;6529;50.566;9.774;2022-08-19T12:11:11;26.80;99.90
12926;DHT22;6529;50.566;9.774;2022-08-19T12:13:38;27.00;99.90
12926;DHT22;6529;50.566;9.774;2022-08-19T12:16:13;26.90;99.90
12926;DHT22;6529;50.566;9.774;2022-08-19T12:18:41;26.70;99.90
12926;DHT22;6529;50.566;9.774;2022-08-19T12:21:09;26.40;99.90
12926;DHT22;6529;50.566;9.774;2022-08-19T12:23:36;26.10;99.90
12926;DHT22;6529;50.566;9.774;2022-08-19T12:26:03;25.90;99.90
12926;DHT22;6529;50.566;9.774;2022-08-19T12:28:30;25.80;99.90
12926;DHT22;6529;50.566;9.774;2022-08-19T12:30:56;25.70;99.90
12926;DHT22;6529;50.566;9.774;2022-08-19T12:33:21;25.80;99.90
12926;DHT22;6529;50.566;9.774;2022-08-19T12:35:50;25.90;99.90
12926;DHT22;6529;50.566;9.774;2022-08-19T12:38:16;25.90;99.90
12926;DHT22;6529;50.566;9.774;2022-08-19T12:40:45;25.90;99.90
12926;DHT22;6529;50.566;9.774;2022-08-19T12:43:11;25.90;99.90
12926;DHT22;6529;50.566;9.774;2022-08-19T12:45:37;26.00;99.90
12926;DHT22;6529;50.566;9.774;2022-08-19T12:48:03;26.20;99.90
12926;DHT22;6529;50.566;9.774;2022-08-19T12:50:30;26.40;99.90
12926;DHT22;6529;50.566;9.774;2022-08-19T12:52:56;26.60;99.90
12926;DHT22;6529;50.566;9.774;2022-08-19T12:55:23;26.70;99.90
12926;DHT22;6529;50.566;9.774;2022-08-19T12:57:50;26.90;99.90
12926;DHT22;6529;50.566;9.774;2022-08-19T13:00:18;27.20;99.90
12926;DHT22;6529;50.566;9.774;2022-08-19T13:02:47;27.40;99.90
12926;DHT22;6529;50.566;9.774;2022-08-19T13:05:17;27.40;99.90
12926;DHT22;6529;50.566;9.774;2022-08-19T13:07:45;27.30;99.90
12926;DHT22;6529;50.566;9.774;2022-08-19T13:10:13;27.30;99.90
12926;DHT22;6529;50.566;9.774;2022-08-19T13:12:41;27.20;99.90
12926;DHT22;6529;50.566;9.774;2022-08-19T13:15:07;27.00;99.90
12926;DHT22;6529;50.566;9.774;2022-08-19T13:17:34;26.80;99.90
12926;DHT22;6529;50.566;9.774;2022-08-19T13:20:00;26.60;99.90
12926;DHT22;6529;50.566;9.774;2022-08-19T13:22:25;26.50;99.90
12926;DHT22;6529;50.566;9.774;2022-08-19T13:24:52;26.40;99.90
12926;DHT22;6529;50.566;9.774;2022-08-19T13:27:18;26.40;99.90
12926;DHT22;6529;50.566;9.774;2022-08-19T13:29:44;26.40;99.90
12926;DHT22;6529;50.566;9.774;2022-08-19T13:32:29;26.50;99.90
12926;DHT22;6529;50.566;9.774;2022-08-19T13:35:16;26.40;99.90
12926;DHT22;6529;50.566;9.774;2022-08-19T13:37:42;26.30;99.90
12926;DHT22;6529;50.566;9.774;2022-08-19T13:40:19;26.10;99.90
12926;DHT22;6529;50.566;9.774;2022-08-19T13:42:47;26.00;99.90
12926;DHT22;6529;50.566;9.774;2022-08-19T13:45:15;26.00;99.90
12926;DHT22;6529;50.566;9.774;2022-08-19T13:47:41;26.00;99.90
12926;DHT22;6529;50.566;9.774;2022-08-19T13:50:11;26.00;99.90
12926;DHT22;6529;50.566;9.774;2022-08-19T13:52:39;26.20;99.90
12926;DHT22;6529;50.566;9.774;2022-08-19T13:55:06;26.50;99.90
12926;DHT22;6529;50.566;9.774;2022-08-19T13:57:31;26.90;99.90
12926;DHT22;6529;50.566;9.774;2022-08-19T13:59:57;27.30;99.90
12926;DHT22;6529;50.566;9.774;2022-08-19T14:02:24;27.60;99.90
12926;DHT22;6529;50.566;9.774;2022-08-19T14:04:49;27.60;99.90
12926;DHT22;6529;50.566;9.774;2022-08-19T14:07:15;27.80;99.80
12926;DHT22;6529;50.566;9.774;2022-08-19T14:09:40;28.00;99.90
12926;DHT22;6529;50.566;9.774;2022-08-19T14:12:06;28.20;97.70
12926;DHT22;6529;50.566;9.774;2022-08-19T14:14:32;28.30;97.20
12926;DHT22;6529;50.566;9.774;2022-08-19T14:17:01;28.20;96.50
12926;DHT22;6529;50.566;9.774;2022-08-19T14:19:26;28.10;97.10
12926;DHT22;6529;50.566;9.774;2022-08-19T14:21:52;28.00;97.30
12926;DHT22;6529;50.566;9.774;2022-08-19T14:24:17;27.60;97.30
12926;DHT22;6529;50.566;9.774;2022-08-19T14:26:43;27.40;96.80
12926;DHT22;6529;50.566;9.774;2022-08-19T14:29:08;27.30;98.90
12926;DHT22;6529;50.566;9.774;2022-08-19T14:31:34;27.20;98.90
12926;DHT22;6529;50.566;9.774;2022-08-19T14:34:00;27.10;99.80
12926;DHT22;6529;50.566;9.774;2022-08-19T14:36:25;27.20;98.50
12926;DHT22;6529;50.566;9.774;2022-08-19T14:38:51;27.20;99.50
12926;DHT22;6529;50.566;9.774;2022-08-19T14:41:19;27.40;97.20
12926;DHT22;6529;50.566;9.774;2022-08-19T14:43:50;27.80;97.00
12926;DHT22;6529;50.566;9.774;2022-08-19T14:46:18;28.00;96.10
12926;DHT22;6529;50.566;9.774;2022-08-19T14:48:46;27.80;97.30
12926;DHT22;6529;50.566;9.774;2022-08-19T14:51:12;27.60;98.00
12926;DHT22;6529;50.566;9.774;2022-08-19T14:53:39;27.40;98.20
12926;DHT22;6529;50.566;9.774;2022-08-19T14:56:10;27.20;98.00
12926;DHT22;6529;50.566;9.774;2022-08-19T14:58:36;27.10;99.10
12926;DHT22;6529;50.566;9.774;2022-08-19T15:01:02;27.10;97.40
12926;DHT22;6529;50.566;9.774;2022-08-19T15:03:29;27.00;97.90
12926;DHT22;6529;50.566;9.774;2022-08-19T15:05:55;27.00;99.10
12926;DHT22;6529;50.566;9.774;2022-08-19T15:08:22;27.20;99.60
12926;DHT22;6529;50.566;9.774;2022-08-19T15:10:50;27.40;97.50
12926;DHT22;6529;50.566;9.774;2022-08-19T15:13:16;27.40;97.80
12926;DHT22;6529;50.566;9.774;2022-08-19T15:15:42;27.50;98.60
12926;DHT22;6529;50.566;9.774;2022-08-19T15:18:07;27.50;97.80
12926;DHT22;6529;50.566;9.774;2022-08-19T15:20:33;27.70;98.00
12926;DHT22;6529;50.566;9.774;2022-08-19T15:22:59;27.80;97.60
12926;DHT22;6529;50.566;9.774;2022-08-19T15:25:26;27.80;97.00
12926;DHT22;6529;50.566;9.774;2022-08-19T15:27:52;27.80;97.00
12926;DHT22;6529;50.566;9.774;2022-08-19T15:30:21;27.70;96.60
12926;DHT22;6529;50.566;9.774;2022-08-19T15:32:48;27.70;96.70
12926;DHT22;6529;50.566;9.774;2022-08-19T15:35:14;27.80;97.50
12926;DHT22;6529;50.566;9.774;2022-08-19T15:37:39;27.70;97.40
12926;DHT22;6529;50.566;9.774;2022-08-19T15:40:05;27.70;96.70
12926;DHT22;6529;50.566;9.774;2022-08-19T15:42:35;27.70;96.20
12926;DHT22;6529;50.566;9.774;2022-08-19T15:45:00;27.60;96.90
12926;DHT22;6529;50.566;9.774;2022-08-19T15:47:28;27.70;97.00
12926;DHT22;6529;50.566;9.774;2022-08-19T15:49:54;27.70;96.20
12926;DHT22;6529;50.566;9.774;2022-08-19T15:52:20;27.80;97.40
12926;DHT22;6529;50.566;9.774;2022-08-19T15:54:46;27.50;97.30
12926;DHT22;6529;50.566;9.774;2022-08-19T15:57:11;27.60;96.90